sensor_id;sensor_type;location;lat;lon;timestamp;P1;durP1;ratioP1;P2;durP2;ratioP2
19643;SDS011;9970;-36.854;174.870;2022-08-01T00:00:12;5.07;;;5.07;;
19643;SDS011;9970;-36.854;174.870;2022-08-01T00:02:46;5.20;;;5.20;;
19643;SDS011;9970;-36.854;174.870;2022-08-01T00:05:19;5.00;;;5.00;;
19643;SDS011;9970;-36.854;174.870;2022-08-01T00:07:51;5.00;;;5.00;;
19643;SDS011;9970;-36.854;174.870;2022-08-01T00:10:24;4.90;;;4.90;;
19643;SDS011;9970;-36.854;174.870;2022-08-01T00:12:58;4.70;;;4.70;;
19643;SDS011;9970;-36.854;174.870;2022-08-01T00:15:31;5.03;;;5.03;;
19643;SDS011;9970;-36.854;174.870;2022-08-01T00:18:04;4.73;;;4.73;;
19643;SDS011;9970;-36.854;174.870;2022-08-01T00:20:37;4.60;;;4.60;;
19643;SDS011;9970;-36.854;174.870;2022-08-01T00:23:10;4.70;;;4.70;;
19643;SDS011;9970;-36.854;174.870;2022-08-01T00:25:43;4.70;;;4.70;;
19643;SDS011;9970;-36.854;174.870;2022-08-01T00:28:16;4.60;;;4.60;;
19643;SDS011;9970;-36.854;174.870;2022-08-01T00:30:49;4.50;;;4.50;;
19643;SDS011;9970;-36.854;174.870;2022-08-01T00:33:22;4.80;;;4.80;;
19643;SDS011;9970;-36.854;174.870;2022-08-01T00:35:55;5.37;;;5.37;;
19643;SDS011;9970;-36.854;174.870;2022-08-01T00:38:28;5.23;;;5.23;;
19643;SDS011;9970;-36.854;174.870;2022-08-01T00:41:02;5.20;;;5.20;;
19643;SDS011;9970;-36.854;174.870;2022-08-01T00:43:35;5.20;;;5.20;;
19643;SDS011;9970;-36.854;174.870;2022-08-01T00:46:08;5.10;;;5.10;;
19643;SDS011;9970;-36.854;174.870;2022-08-01T00:48:41;5.10;;;5.10;;
19643;SDS011;9970;-36.854;174.870;2022-08-01T00:51:14;5.00;;;5.00;;
19643;SDS011;9970;-36.854;174.870;2022-08-01T00:53:48;4.90;;;4.90;;
19643;SDS011;9970;-36.854;174.870;2022-08-01T00:56:23;4.90;;;4.90;;
19643;SDS011;9970;-36.854;174.870;2022-08-01T00:58:57;4.90;;;4.90;;
19643;SDS011;9970;-36.854;174.870;2022-08-01T01:01:31;4.93;;;4.93;;
19643;SDS011;9970;-36.854;174.870;2022-08-01T01:04:05;4.83;;;4.83;;
19643;SDS011;9970;-36.854;174.870;2022-08-01T01:09:39;5.10;;;5.10;;
19643;SDS011;9970;-36.854;174.870;2022-08-01T01:15:26;5.00;;;5.00;;
19643;SDS011;9970;-36.854;174.870;2022-08-01T01:18:07;4.90;;;4.90;;
19643;SDS011;9970;-36.854;174.870;2022-08-01T01:20:41;4.90;;;4.90;;
19643;SDS011;9970;-36.854;174.870;2022-08-01T01:23:29;5.20;;;5.20;;
19643;SDS011;9970;-36.854;174.870;2022-08-01T01:29:07;4.73;;;4.73;;
19643;SDS011;9970;-36.854;174.870;2022-08-01T01:34:24;4.50;;;4.50;;
19643;SDS011;9970;-36.854;174.870;2022-08-01T01:36:59;4.27;;;4.27;;
19643;SDS011;9970;-36.854;174.870;2022-08-01T01:39:32;4.80;;;4.80;;
19643;SDS011;9970;-36.854;174.870;2022-08-01T01:42:08;4.60;;;4.60;;
19643;SDS011;9970;-36.854;174.870;2022-08-01T01:44:42;5.00;;;5.00;;
19643;SDS011;9970;-36.854;174.870;2022-08-01T01:47:17;4.70;;;4.70;;
19643;SDS011;9970;-36.854;174.870;2022-08-01T01:49:50;4.70;;;4.70;;
19643;SDS011;9970;-36.854;174.870;2022-08-01T01:52:25;4.60;;;4.60;;
19643;SDS011;9970;-36.854;174.870;2022-08-01T01:55:01;5.10;;;5.10;;
19643;SDS011;9970;-36.854;174.870;2022-08-01T01:57:39;4.57;;;4.57;;
19643;SDS011;9970;-36.854;174.870;2022-08-01T02:00:13;4.60;;;4.60;;
19643;SDS011;9970;-36.854;174.870;2022-08-01T02:02:56;4.87;;;4.87;;
19643;SDS011;9970;-36.854;174.870;2022-08-01T02:05:31;4.60;;;4.60;;
19643;SDS011;9970;-36.854;174.870;2022-08-01T02:08:08;4.70;;;4.70;;
19643;SDS011;9970;-36.854;174.870;2022-08-01T02:10:42;4.90;;;4.90;;
19643;SDS011;9970;-36.854;174.870;2022-08-01T02:13:34;4.60;;;4.60;;
19643;SDS011;9970;-36.854;174.870;2022-08-01T02:16:08;4.60;;;4.60;;
19643;SDS011;9970;-36.854;174.870;2022-08-01T02:18:41;4.50;;;4.50;;
19643;SDS011;9970;-36.854;174.870;2022-08-01T02:21:16;4.13;;;4.13;;
19643;SDS011;9970;-36.854;174.870;2022-08-01T02:23:49;4.50;;;4.50;;
19643;SDS011;9970;-36.854;174.870;2022-08-01T02:26:23;4.60;;;4.60;;
19643;SDS011;9970;-36.854;174.870;2022-08-01T02:28:57;4.60;;;4.60;;
19643;SDS011;9970;-36.854;174.870;2022-08-01T02:31:35;4.40;;;4.40;;
19643;SDS011;9970;-36.854;174.870;2022-08-01T02:34:09;4.10;;;4.10;;
19643;SDS011;9970;-36.854;174.870;2022-08-01T02:36:45;4.40;;;4.40;;
19643;SDS011;9970;-36.854;174.870;2022-08-01T02:39:19;4.30;;;4.30;;
19643;SDS011;9970;-36.854;174.870;2022-08-01T02:41:53;4.30;;;4.30;;
19643;SDS011;9970;-36.854;174.870;2022-08-01T02:44:30;4.20;;;4.20;;
19643;SDS011;9970;-36.854;174.870;2022-08-01T02:47:03;4.40;;;4.40;;
19643;SDS011;9970;-36.854;174.870;2022-08-01T02:49:42;4.50;;;4.50;;
19643;SDS011;9970;-36.854;174.870;2022-08-01T02:52:18;4.30;;;4.30;;
19643;SDS011;9970;-36.854;174.870;2022-08-01T02:54:54;4.30;;;4.30;;
19643;SDS011;9970;-36.854;174.870;2022-08-01T02:57:27;4.50;;;4.50;;
19643;SDS011;9970;-36.854;174.870;2022-08-01T03:00:07;4.20;;;4.20;;
19643;SDS011;9970;-36.854;174.870;2022-08-01T03:02:42;4.30;;;4.30;;
19643;SDS011;9970;-36.854;174.870;2022-08-01T03:05:22;4.50;;;4.50;;
19643;SDS011;9970;-36.854;174.870;2022-08-01T03:07:56;4.40;;;4.40;;
19643;SDS011;9970;-36.854;174.870;2022-08-01T03:10:31;4.40;;;4.40;;
19643;SDS011;9970;-36.854;174.870;2022-08-01T03:13:07;4.10;;;4.10;;
19643;SDS011;9970;-36.854;174.870;2022-08-01T03:15:41;4.10;;;4.10;;
19643;SDS011;9970;-36.854;174.870;2022-08-01T03:18:16;4.20;;;4.20;;
19643;SDS011;9970;-36.854;174.870;2022-08-01T03:20:52;4.40;;;4.40;;
19643;SDS011;9970;-36.854;174.870;2022-08-01T03:23:26;4.50;;;4.50;;
19643;SDS011;9970;-36.854;174.870;2022-08-01T03:26:02;4.23;;;4.23;;
19643;SDS011;9970;-36.854;174.870;2022-08-01T03:28:36;4.50;;;4.50;;
19643;SDS011;9970;-36.854;174.870;2022-08-01T03:31:09;4.30;;;4.30;;
19643;SDS011;9970;-36.854;174.870;2022-08-01T03:33:48;4.40;;;4.40;;
19643;SDS011;9970;-36.854;174.870;2022-08-01T03:36:21;4.10;;;4.10;;
19643;SDS011;9970;-36.854;174.870;2022-08-01T03:38:57;4.40;;;4.40;;
19643;SDS011;9970;-36.854;174.870;2022-08-01T03:41:37;4.07;;;4.07;;
19643;SDS011;9970;-36.854;174.870;2022-08-01T03:44:12;4.00;;;4.00;;
19643;SDS011;9970;-36.854;174.870;2022-08-01T03:46:42;4.10;;;4.10;;
19643;SDS011;9970;-36.854;174.870;2022-08-01T03:49:22;4.20;;;4.20;;
19643;SDS011;9970;-36.854;174.870;2022-08-01T03:51:50;4.00;;;4.00;;
19643;SDS011;9970;-36.854;174.870;2022-08-01T03:54:24;3.93;;;3.93;;
19643;SDS011;9970;-36.854;174.870;2022-08-01T03:56:58;4.00;;;4.00;;
19643;SDS011;9970;-36.854;174.870;2022-08-01T03:59:33;4.10;;;4.10;;
19643;SDS011;9970;-36.854;174.870;2022-08-01T04:02:07;3.70;;;3.70;;
19643;SDS011;9970;-36.854;174.870;2022-08-01T04:04:40;3.90;;;3.90;;
19643;SDS011;9970;-36.854;174.870;2022-08-01T04:07:23;3.90;;;3.90;;
19643;SDS011;9970;-36.854;174.870;2022-08-01T04:09:57;4.00;;;4.00;;
19643;SDS011;9970;-36.854;174.870;2022-08-01T04:12:30;3.90;;;3.90;;
19643;SDS011;9970;-36.854;174.870;2022-08-01T04:15:03;4.10;;;4.10;;
19643;SDS011;9970;-36.854;174.870;2022-08-01T04:17:36;3.90;;;3.90;;
19643;SDS011;9970;-36.854;174.870;2022-08-01T04:20:09;3.90;;;3.90;;
19643;SDS011;9970;-36.854;174.870;2022-08-01T04:22:42;3.70;;;3.70;;
19643;SDS011;9970;-36.854;174.870;2022-08-01T04:28:05;3.50;;;3.50;;
19643;SDS011;9970;-36.854;174.870;2022-08-01T04:30:40;3.60;;;3.60;;
19643;SDS011;9970;-36.854;174.870;2022-08-01T04:33:14;3.80;;;3.80;;
19643;SDS011;9970;-36.854;174.870;2022-08-01T04:35:49;3.60;;;3.60;;
19643;SDS011;9970;-36.854;174.870;2022-08-01T04:38:25;3.70;;;3.70;;
19643;SDS011;9970;-36.854;174.870;2022-08-01T04:41:00;3.60;;;3.60;;
19643;SDS011;9970;-36.854;174.870;2022-08-01T04:43:41;3.70;;;3.70;;
19643;SDS011;9970;-36.854;174.870;2022-08-01T04:46:15;3.60;;;3.60;;
19643;SDS011;9970;-36.854;174.870;2022-08-01T04:48:48;3.70;;;3.70;;
19643;SDS011;9970;-36.854;174.870;2022-08-01T04:51:22;3.50;;;3.50;;
19643;SDS011;9970;-36.854;174.870;2022-08-01T04:53:55;3.70;;;3.70;;
19643;SDS011;9970;-36.854;174.870;2022-08-01T04:56:27;3.50;;;3.50;;
19643;SDS011;9970;-36.854;174.870;2022-08-01T04:59:01;3.50;;;3.50;;
19643;SDS011;9970;-36.854;174.870;2022-08-01T05:01:58;3.40;;;3.40;;
19643;SDS011;9970;-36.854;174.870;2022-08-01T05:04:31;3.50;;;3.50;;
19643;SDS011;9970;-36.854;174.870;2022-08-01T05:07:08;3.50;;;3.50;;
19643;SDS011;9970;-36.854;174.870;2022-08-01T05:09:42;3.33;;;3.33;;
19643;SDS011;9970;-36.854;174.870;2022-08-01T05:12:15;3.20;;;3.20;;
19643;SDS011;9970;-36.854;174.870;2022-08-01T05:14:48;3.20;;;3.20;;
19643;SDS011;9970;-36.854;174.870;2022-08-01T05:17:21;3.10;;;3.10;;
19643;SDS011;9970;-36.854;174.870;2022-08-01T05:19:54;3.17;;;3.17;;
19643;SDS011;9970;-36.854;174.870;2022-08-01T05:22:27;3.10;;;3.10;;
19643;SDS011;9970;-36.854;174.870;2022-08-01T05:25:00;3.00;;;3.00;;
19643;SDS011;9970;-36.854;174.870;2022-08-01T05:27:34;2.90;;;2.90;;
19643;SDS011;9970;-36.854;174.870;2022-08-01T05:30:09;2.80;;;2.80;;
19643;SDS011;9970;-36.854;174.870;2022-08-01T05:32:42;2.80;;;2.80;;
19643;SDS011;9970;-36.854;174.870;2022-08-01T05:35:15;2.70;;;2.70;;
19643;SDS011;9970;-36.854;174.870;2022-08-01T05:37:48;2.60;;;2.60;;
19643;SDS011;9970;-36.854;174.870;2022-08-01T05:40:21;2.47;;;2.47;;
19643;SDS011;9970;-36.854;174.870;2022-08-01T05:42:54;2.60;;;2.60;;
19643;SDS011;9970;-36.854;174.870;2022-08-01T05:45:27;2.47;;;2.47;;
19643;SDS011;9970;-36.854;174.870;2022-08-01T05:48:00;2.73;;;2.73;;
19643;SDS011;9970;-36.854;174.870;2022-08-01T05:50:33;2.40;;;2.40;;
19643;SDS011;9970;-36.854;174.870;2022-08-01T05:53:06;2.40;;;2.40;;
19643;SDS011;9970;-36.854;174.870;2022-08-01T05:55:39;2.50;;;2.50;;
19643;SDS011;9970;-36.854;174.870;2022-08-01T05:58:16;2.50;;;2.50;;
19643;SDS011;9970;-36.854;174.870;2022-08-01T06:00:49;2.50;;;2.50;;
19643;SDS011;9970;-36.854;174.870;2022-08-01T06:03:22;2.47;;;2.47;;
19643;SDS011;9970;-36.854;174.870;2022-08-01T06:05:55;2.40;;;2.40;;
19643;SDS011;9970;-36.854;174.870;2022-08-01T06:08:29;2.50;;;2.50;;
19643;SDS011;9970;-36.854;174.870;2022-08-01T06:11:02;2.30;;;2.30;;
19643;SDS011;9970;-36.854;174.870;2022-08-01T06:13:35;2.40;;;2.40;;
19643;SDS011;9970;-36.854;174.870;2022-08-01T06:16:09;2.30;;;2.30;;
19643;SDS011;9970;-36.854;174.870;2022-08-01T06:18:42;2.30;;;2.30;;
19643;SDS011;9970;-36.854;174.870;2022-08-01T06:21:15;2.40;;;2.40;;
19643;SDS011;9970;-36.854;174.870;2022-08-01T06:23:48;2.60;;;2.60;;
19643;SDS011;9970;-36.854;174.870;2022-08-01T06:26:25;2.40;;;2.40;;
19643;SDS011;9970;-36.854;174.870;2022-08-01T06:28:58;2.60;;;2.60;;
19643;SDS011;9970;-36.854;174.870;2022-08-01T06:31:31;2.20;;;2.20;;
19643;SDS011;9970;-36.854;174.870;2022-08-01T06:34:06;2.27;;;2.27;;
19643;SDS011;9970;-36.854;174.870;2022-08-01T06:36:39;2.20;;;2.20;;
19643;SDS011;9970;-36.854;174.870;2022-08-01T06:39:12;2.10;;;2.10;;
19643;SDS011;9970;-36.854;174.870;2022-08-01T06:41:45;2.20;;;2.20;;
19643;SDS011;9970;-36.854;174.870;2022-08-01T06:44:18;2.30;;;2.30;;
19643;SDS011;9970;-36.854;174.870;2022-08-01T06:46:51;2.10;;;2.10;;
19643;SDS011;9970;-36.854;174.870;2022-08-01T06:49:24;2.10;;;2.10;;
19643;SDS011;9970;-36.854;174.870;2022-08-01T06:51:57;2.30;;;2.30;;
19643;SDS011;9970;-36.854;174.870;2022-08-01T06:54:33;2.30;;;2.30;;
19643;SDS011;9970;-36.854;174.870;2022-08-01T06:57:06;2.20;;;2.20;;
19643;SDS011;9970;-36.854;174.870;2022-08-01T06:59:39;2.10;;;2.10;;
19643;SDS011;9970;-36.854;174.870;2022-08-01T07:02:13;2.13;;;2.13;;
19643;SDS011;9970;-36.854;174.870;2022-08-01T07:04:50;2.20;;;2.20;;
19643;SDS011;9970;-36.854;174.870;2022-08-01T07:07:23;2.10;;;2.10;;
19643;SDS011;9970;-36.854;174.870;2022-08-01T07:09:56;2.20;;;2.20;;
19643;SDS011;9970;-36.854;174.870;2022-08-01T07:12:29;2.10;;;2.10;;
19643;SDS011;9970;-36.854;174.870;2022-08-01T07:15:03;2.10;;;2.10;;
19643;SDS011;9970;-36.854;174.870;2022-08-01T07:17:41;2.10;;;2.10;;
19643;SDS011;9970;-36.854;174.870;2022-08-01T07:20:14;2.03;;;2.03;;
19643;SDS011;9970;-36.854;174.870;2022-08-01T07:22:48;2.00;;;2.00;;
19643;SDS011;9970;-36.854;174.870;2022-08-01T07:25:22;2.10;;;2.10;;
19643;SDS011;9970;-36.854;174.870;2022-08-01T07:27:55;2.20;;;2.20;;
19643;SDS011;9970;-36.854;174.870;2022-08-01T07:30:32;2.10;;;2.10;;
19643;SDS011;9970;-36.854;174.870;2022-08-01T07:33:05;2.10;;;2.10;;
19643;SDS011;9970;-36.854;174.870;2022-08-01T07:35:42;1.90;;;1.90;;
19643;SDS011;9970;-36.854;174.870;2022-08-01T07:38:15;1.90;;;1.90;;
19643;SDS011;9970;-36.854;174.870;2022-08-01T07:40:48;1.90;;;1.90;;
19643;SDS011;9970;-36.854;174.870;2022-08-01T07:43:21;1.90;;;1.90;;
19643;SDS011;9970;-36.854;174.870;2022-08-01T07:45:54;1.80;;;1.80;;
19643;SDS011;9970;-36.854;174.870;2022-08-01T07:48:28;2.10;;;2.10;;
19643;SDS011;9970;-36.854;174.870;2022-08-01T07:51:01;1.80;;;1.80;;
19643;SDS011;9970;-36.854;174.870;2022-08-01T07:53:34;1.90;;;1.90;;
19643;SDS011;9970;-36.854;174.870;2022-08-01T07:56:07;1.70;;;1.70;;
19643;SDS011;9970;-36.854;174.870;2022-08-01T07:58:40;1.70;;;1.70;;
19643;SDS011;9970;-36.854;174.870;2022-08-01T08:01:12;2.07;;;2.07;;
19643;SDS011;9970;-36.854;174.870;2022-08-01T08:03:45;1.80;;;1.80;;
19643;SDS011;9970;-36.854;174.870;2022-08-01T08:06:18;2.03;;;2.03;;
19643;SDS011;9970;-36.854;174.870;2022-08-01T08:08:51;1.80;;;1.80;;
19643;SDS011;9970;-36.854;174.870;2022-08-01T08:11:28;1.80;;;1.80;;
19643;SDS011;9970;-36.854;174.870;2022-08-01T08:14:01;2.10;;;2.10;;
19643;SDS011;9970;-36.854;174.870;2022-08-01T08:16:34;2.00;;;2.00;;
19643;SDS011;9970;-36.854;174.870;2022-08-01T08:19:07;1.70;;;1.70;;
19643;SDS011;9970;-36.854;174.870;2022-08-01T08:21:40;1.70;;;1.70;;
19643;SDS011;9970;-36.854;174.870;2022-08-01T08:24:14;2.00;;;2.00;;
19643;SDS011;9970;-36.854;174.870;2022-08-01T08:26:51;1.77;;;1.77;;
19643;SDS011;9970;-36.854;174.870;2022-08-01T08:29:26;1.80;;;1.80;;
19643;SDS011;9970;-36.854;174.870;2022-08-01T08:32:00;1.70;;;1.70;;
19643;SDS011;9970;-36.854;174.870;2022-08-01T08:34:34;1.70;;;1.70;;
19643;SDS011;9970;-36.854;174.870;2022-08-01T08:37:07;1.70;;;1.70;;
19643;SDS011;9970;-36.854;174.870;2022-08-01T08:39:40;1.60;;;1.60;;
19643;SDS011;9970;-36.854;174.870;2022-08-01T08:42:14;1.80;;;1.80;;
19643;SDS011;9970;-36.854;174.870;2022-08-01T08:44:47;1.93;;;1.93;;
19643;SDS011;9970;-36.854;174.870;2022-08-01T08:47:19;1.70;;;1.70;;
19643;SDS011;9970;-36.854;174.870;2022-08-01T08:49:56;1.80;;;1.80;;
19643;SDS011;9970;-36.854;174.870;2022-08-01T08:52:29;1.97;;;1.97;;
19643;SDS011;9970;-36.854;174.870;2022-08-01T08:55:04;1.80;;;1.80;;
19643;SDS011;9970;-36.854;174.870;2022-08-01T08:57:39;1.90;;;1.90;;
19643;SDS011;9970;-36.854;174.870;2022-08-01T09:00:14;1.70;;;1.70;;
19643;SDS011;9970;-36.854;174.870;2022-08-01T09:02:47;1.80;;;1.80;;
19643;SDS011;9970;-36.854;174.870;2022-08-01T09:05:22;1.80;;;1.80;;
19643;SDS011;9970;-36.854;174.870;2022-08-01T09:07:59;1.90;;;1.90;;
19643;SDS011;9970;-36.854;174.870;2022-08-01T09:10:33;1.70;;;1.70;;
19643;SDS011;9970;-36.854;174.870;2022-08-01T09:13:06;2.20;;;2.20;;
19643;SDS011;9970;-36.854;174.870;2022-08-01T09:15:44;1.90;;;1.90;;
19643;SDS011;9970;-36.854;174.870;2022-08-01T09:18:29;1.80;;;1.80;;
19643;SDS011;9970;-36.854;174.870;2022-08-01T09:21:17;1.70;;;1.70;;
19643;SDS011;9970;-36.854;174.870;2022-08-01T09:23:51;1.90;;;1.90;;
19643;SDS011;9970;-36.854;174.870;2022-08-01T09:26:30;1.80;;;1.80;;
19643;SDS011;9970;-36.854;174.870;2022-08-01T09:29:06;1.80;;;1.80;;
19643;SDS011;9970;-36.854;174.870;2022-08-01T09:31:42;1.90;;;1.90;;
19643;SDS011;9970;-36.854;174.870;2022-08-01T09:34:16;1.90;;;1.90;;
19643;SDS011;9970;-36.854;174.870;2022-08-01T09:36:57;1.93;;;1.93;;
19643;SDS011;9970;-36.854;174.870;2022-08-01T09:39:33;1.90;;;1.90;;
19643;SDS011;9970;-36.854;174.870;2022-08-01T09:42:19;1.90;;;1.90;;
19643;SDS011;9970;-36.854;174.870;2022-08-01T09:44:54;1.80;;;1.80;;
19643;SDS011;9970;-36.854;174.870;2022-08-01T09:47:36;1.90;;;1.90;;
19643;SDS011;9970;-36.854;174.870;2022-08-01T09:50:10;1.70;;;1.70;;
19643;SDS011;9970;-36.854;174.870;2022-08-01T09:52:48;1.80;;;1.80;;
19643;SDS011;9970;-36.854;174.870;2022-08-01T09:55:20;1.90;;;1.90;;
19643;SDS011;9970;-36.854;174.870;2022-08-01T09:57:55;1.90;;;1.90;;
19643;SDS011;9970;-36.854;174.870;2022-08-01T10:00:29;1.87;;;1.87;;
19643;SDS011;9970;-36.854;174.870;2022-08-01T10:03:23;1.90;;;1.90;;
19643;SDS011;9970;-36.854;174.870;2022-08-01T10:05:58;1.90;;;1.90;;
19643;SDS011;9970;-36.854;174.870;2022-08-01T10:08:44;1.90;;;1.90;;
19643;SDS011;9970;-36.854;174.870;2022-08-01T10:11:08;1.97;;;1.97;;
19643;SDS011;9970;-36.854;174.870;2022-08-01T10:13:43;1.80;;;1.80;;
19643;SDS011;9970;-36.854;174.870;2022-08-01T10:16:17;1.80;;;1.80;;
19643;SDS011;9970;-36.854;174.870;2022-08-01T10:18:51;1.93;;;1.93;;
19643;SDS011;9970;-36.854;174.870;2022-08-01T10:21:28;1.80;;;1.80;;
19643;SDS011;9970;-36.854;174.870;2022-08-01T10:24:09;1.80;;;1.80;;
19643;SDS011;9970;-36.854;174.870;2022-08-01T10:26:44;1.93;;;1.93;;
19643;SDS011;9970;-36.854;174.870;2022-08-01T10:29:25;1.90;;;1.90;;
19643;SDS011;9970;-36.854;174.870;2022-08-01T10:32:01;1.90;;;1.90;;
19643;SDS011;9970;-36.854;174.870;2022-08-01T10:34:38;1.80;;;1.80;;
19643;SDS011;9970;-36.854;174.870;2022-08-01T10:37:12;1.90;;;1.90;;
19643;SDS011;9970;-36.854;174.870;2022-08-01T10:39:46;1.80;;;1.80;;
19643;SDS011;9970;-36.854;174.870;2022-08-01T10:42:21;2.00;;;2.00;;
19643;SDS011;9970;-36.854;174.870;2022-08-01T10:44:54;1.80;;;1.80;;
19643;SDS011;9970;-36.854;174.870;2022-08-01T10:47:34;1.80;;;1.80;;
19643;SDS011;9970;-36.854;174.870;2022-08-01T10:58:35;1.80;;;1.80;;
19643;SDS011;9970;-36.854;174.870;2022-08-01T11:01:18;1.83;;;1.83;;
19643;SDS011;9970;-36.854;174.870;2022-08-01T11:04:09;1.80;;;1.80;;
19643;SDS011;9970;-36.854;174.870;2022-08-01T11:09:30;1.70;;;1.70;;
19643;SDS011;9970;-36.854;174.870;2022-08-01T11:12:09;1.60;;;1.60;;
19643;SDS011;9970;-36.854;174.870;2022-08-01T11:17:35;1.70;;;1.70;;
19643;SDS011;9970;-36.854;174.870;2022-08-01T11:20:18;1.83;;;1.83;;
19643;SDS011;9970;-36.854;174.870;2022-08-01T11:36:26;1.80;;;1.80;;
19643;SDS011;9970;-36.854;174.870;2022-08-01T11:41:39;1.70;;;1.70;;
19643;SDS011;9970;-36.854;174.870;2022-08-01T11:44:13;1.80;;;1.80;;
19643;SDS011;9970;-36.854;174.870;2022-08-01T11:52:28;1.70;;;1.70;;
19643;SDS011;9970;-36.854;174.870;2022-08-01T11:55:06;1.70;;;1.70;;
19643;SDS011;9970;-36.854;174.870;2022-08-01T11:57:41;1.70;;;1.70;;
19643;SDS011;9970;-36.854;174.870;2022-08-01T12:00:15;1.80;;;1.80;;
19643;SDS011;9970;-36.854;174.870;2022-08-01T12:02:57;1.70;;;1.70;;
19643;SDS011;9970;-36.854;174.870;2022-08-01T12:05:32;1.70;;;1.70;;
19643;SDS011;9970;-36.854;174.870;2022-08-01T12:08:07;1.70;;;1.70;;
19643;SDS011;9970;-36.854;174.870;2022-08-01T12:10:49;1.60;;;1.60;;
19643;SDS011;9970;-36.854;174.870;2022-08-01T12:13:21;1.70;;;1.70;;
19643;SDS011;9970;-36.854;174.870;2022-08-01T12:15:54;1.60;;;1.60;;
19643;SDS011;9970;-36.854;174.870;2022-08-01T12:18:28;1.60;;;1.60;;
19643;SDS011;9970;-36.854;174.870;2022-08-01T12:21:03;1.60;;;1.60;;
19643;SDS011;9970;-36.854;174.870;2022-08-01T12:23:36;1.60;;;1.60;;
19643;SDS011;9970;-36.854;174.870;2022-08-01T12:26:09;1.70;;;1.70;;
19643;SDS011;9970;-36.854;174.870;2022-08-01T12:28:43;1.60;;;1.60;;
19643;SDS011;9970;-36.854;174.870;2022-08-01T12:31:18;1.50;;;1.50;;
19643;SDS011;9970;-36.854;174.870;2022-08-01T12:33:52;1.57;;;1.57;;
19643;SDS011;9970;-36.854;174.870;2022-08-01T12:36:28;1.60;;;1.60;;
19643;SDS011;9970;-36.854;174.870;2022-08-01T12:39:02;1.50;;;1.50;;
19643;SDS011;9970;-36.854;174.870;2022-08-01T12:41:35;1.60;;;1.60;;
19643;SDS011;9970;-36.854;174.870;2022-08-01T12:44:15;1.50;;;1.50;;
19643;SDS011;9970;-36.854;174.870;2022-08-01T12:46:47;1.50;;;1.50;;
19643;SDS011;9970;-36.854;174.870;2022-08-01T12:49:21;1.40;;;1.40;;
19643;SDS011;9970;-36.854;174.870;2022-08-01T12:51:54;1.43;;;1.43;;
19643;SDS011;9970;-36.854;174.870;2022-08-01T12:54:27;1.50;;;1.50;;
19643;SDS011;9970;-36.854;174.870;2022-08-01T12:57:00;1.53;;;1.53;;
19643;SDS011;9970;-36.854;174.870;2022-08-01T12:59:34;1.50;;;1.50;;
19643;SDS011;9970;-36.854;174.870;2022-08-01T13:02:10;1.50;;;1.50;;
19643;SDS011;9970;-36.854;174.870;2022-08-01T13:04:49;1.50;;;1.50;;
19643;SDS011;9970;-36.854;174.870;2022-08-01T13:07:22;1.50;;;1.50;;
19643;SDS011;9970;-36.854;174.870;2022-08-01T13:10:14;1.50;;;1.50;;
19643;SDS011;9970;-36.854;174.870;2022-08-01T13:12:58;1.50;;;1.50;;
19643;SDS011;9970;-36.854;174.870;2022-08-01T13:15:31;1.50;;;1.50;;
19643;SDS011;9970;-36.854;174.870;2022-08-01T13:18:26;1.50;;;1.50;;
19643;SDS011;9970;-36.854;174.870;2022-08-01T13:21:10;1.50;;;1.50;;
19643;SDS011;9970;-36.854;174.870;2022-08-01T13:24:04;1.50;;;1.50;;
19643;SDS011;9970;-36.854;174.870;2022-08-01T13:26:47;1.50;;;1.50;;
19643;SDS011;9970;-36.854;174.870;2022-08-01T13:29:20;1.60;;;1.60;;
19643;SDS011;9970;-36.854;174.870;2022-08-01T13:31:55;1.50;;;1.50;;
19643;SDS011;9970;-36.854;174.870;2022-08-01T13:34:34;1.40;;;1.40;;
19643;SDS011;9970;-36.854;174.870;2022-08-01T13:37:09;1.50;;;1.50;;
19643;SDS011;9970;-36.854;174.870;2022-08-01T13:39:45;1.60;;;1.60;;
19643;SDS011;9970;-36.854;174.870;2022-08-01T13:42:22;1.60;;;1.60;;
19643;SDS011;9970;-36.854;174.870;2022-08-01T13:44:55;1.50;;;1.50;;
19643;SDS011;9970;-36.854;174.870;2022-08-01T13:47:32;1.60;;;1.60;;
19643;SDS011;9970;-36.854;174.870;2022-08-01T13:50:06;1.50;;;1.50;;
19643;SDS011;9970;-36.854;174.870;2022-08-01T13:52:43;1.50;;;1.50;;
19643;SDS011;9970;-36.854;174.870;2022-08-01T13:55:16;1.40;;;1.40;;
19643;SDS011;9970;-36.854;174.870;2022-08-01T13:57:49;1.40;;;1.40;;
19643;SDS011;9970;-36.854;174.870;2022-08-01T14:00:22;1.40;;;1.40;;
19643;SDS011;9970;-36.854;174.870;2022-08-01T14:02:54;1.40;;;1.40;;
19643;SDS011;9970;-36.854;174.870;2022-08-01T14:05:31;1.40;;;1.40;;
19643;SDS011;9970;-36.854;174.870;2022-08-01T14:08:04;1.70;;;1.70;;
19643;SDS011;9970;-36.854;174.870;2022-08-01T14:10:38;1.40;;;1.40;;
19643;SDS011;9970;-36.854;174.870;2022-08-01T14:13:11;1.50;;;1.50;;
19643;SDS011;9970;-36.854;174.870;2022-08-01T14:15:50;1.40;;;1.40;;
19643;SDS011;9970;-36.854;174.870;2022-08-01T14:18:23;1.40;;;1.40;;
19643;SDS011;9970;-36.854;174.870;2022-08-01T14:20:56;1.50;;;1.50;;
19643;SDS011;9970;-36.854;174.870;2022-08-01T14:23:30;1.37;;;1.37;;
19643;SDS011;9970;-36.854;174.870;2022-08-01T14:26:03;1.50;;;1.50;;
19643;SDS011;9970;-36.854;174.870;2022-08-01T14:28:37;1.50;;;1.50;;
19643;SDS011;9970;-36.854;174.870;2022-08-01T14:31:12;1.50;;;1.50;;
19643;SDS011;9970;-36.854;174.870;2022-08-01T14:33:46;1.40;;;1.40;;
19643;SDS011;9970;-36.854;174.870;2022-08-01T14:36:19;1.40;;;1.40;;
19643;SDS011;9970;-36.854;174.870;2022-08-01T14:38:53;1.50;;;1.50;;
19643;SDS011;9970;-36.854;174.870;2022-08-01T14:41:27;1.40;;;1.40;;
19643;SDS011;9970;-36.854;174.870;2022-08-01T14:44:00;1.40;;;1.40;;
19643;SDS011;9970;-36.854;174.870;2022-08-01T14:46:33;1.40;;;1.40;;
19643;SDS011;9970;-36.854;174.870;2022-08-01T14:49:07;1.40;;;1.40;;
19643;SDS011;9970;-36.854;174.870;2022-08-01T14:51:41;1.30;;;1.30;;
19643;SDS011;9970;-36.854;174.870;2022-08-01T14:54:13;1.50;;;1.50;;
19643;SDS011;9970;-36.854;174.870;2022-08-01T14:56:47;1.50;;;1.50;;
19643;SDS011;9970;-36.854;174.870;2022-08-01T14:59:21;1.43;;;1.43;;
19643;SDS011;9970;-36.854;174.870;2022-08-01T15:01:54;1.40;;;1.40;;
19643;SDS011;9970;-36.854;174.870;2022-08-01T15:04:28;1.40;;;1.40;;
19643;SDS011;9970;-36.854;174.870;2022-08-01T15:07:01;1.50;;;1.50;;
19643;SDS011;9970;-36.854;174.870;2022-08-01T15:09:33;1.50;;;1.50;;
19643;SDS011;9970;-36.854;174.870;2022-08-01T15:12:06;1.40;;;1.40;;
19643;SDS011;9970;-36.854;174.870;2022-08-01T15:14:40;1.60;;;1.60;;
19643;SDS011;9970;-36.854;174.870;2022-08-01T15:17:19;1.60;;;1.60;;
19643;SDS011;9970;-36.854;174.870;2022-08-01T15:19:55;1.60;;;1.60;;
19643;SDS011;9970;-36.854;174.870;2022-08-01T15:22:28;1.60;;;1.60;;
19643;SDS011;9970;-36.854;174.870;2022-08-01T15:25:01;1.60;;;1.60;;
19643;SDS011;9970;-36.854;174.870;2022-08-01T15:27:36;1.60;;;1.60;;
19643;SDS011;9970;-36.854;174.870;2022-08-01T15:30:09;1.70;;;1.70;;
19643;SDS011;9970;-36.854;174.870;2022-08-01T15:32:42;1.50;;;1.50;;
19643;SDS011;9970;-36.854;174.870;2022-08-01T15:35:20;1.40;;;1.40;;
19643;SDS011;9970;-36.854;174.870;2022-08-01T15:37:53;1.40;;;1.40;;
19643;SDS011;9970;-36.854;174.870;2022-08-01T15:40:26;1.40;;;1.40;;
19643;SDS011;9970;-36.854;174.870;2022-08-01T15:43:00;1.40;;;1.40;;
19643;SDS011;9970;-36.854;174.870;2022-08-01T15:45:33;1.50;;;1.50;;
19643;SDS011;9970;-36.854;174.870;2022-08-01T15:48:08;1.57;;;1.57;;
19643;SDS011;9970;-36.854;174.870;2022-08-01T15:50:41;1.40;;;1.40;;
19643;SDS011;9970;-36.854;174.870;2022-08-01T15:53:14;1.50;;;1.50;;
19643;SDS011;9970;-36.854;174.870;2022-08-01T15:55:46;1.50;;;1.50;;